createdAt,value
2023-01-03T00:02:19.816Z,99610.91
2023-01-03T00:05:05.793Z,99603.78
2023-01-03T00:07:51.321Z,99618.09
2023-01-03T00:10:37.009Z,99626.09
2023-01-03T00:13:22.617Z,99616.91
2023-01-03T00:16:18.622Z,99618.56
2023-01-03T00:19:09.640Z,99615.41
2023-01-03T00:21:54.909Z,99610.25
2023-01-03T00:24:40.556Z,99604.69
2023-01-03T00:27:26.919Z,99614.25
2023-01-03T00:30:12.606Z,99615.88
2023-01-03T00:32:58.015Z,99620.66
2023-01-03T00:35:43.457Z,99624.66
2023-01-03T00:38:29.320Z,99629.44
2023-01-03T00:41:17.277Z,99635.00
2023-01-03T00:44:03.631Z,99641.75
2023-01-03T00:46:49.545Z,99642.97
2023-01-03T00:49:35.239Z,99651.72
2023-01-03T00:52:20.570Z,99663.31
2023-01-03T00:55:06.381Z,99665.28
2023-01-03T00:57:52.020Z,99669.28
2023-01-03T01:00:37.234Z,99661.34
2023-01-03T01:03:22.822Z,99666.91
2023-01-03T01:06:30.826Z,99671.31
2023-01-03T01:09:20.499Z,99668.53
2023-01-03T01:12:07.368Z,99679.66
2023-01-03T01:14:52.843Z,99679.66
2023-01-03T01:17:38.973Z,99680.06
2023-01-03T01:20:24.528Z,99676.50
2023-01-03T01:23:09.951Z,99685.25
2023-01-03T01:25:55.373Z,99701.94
2023-01-03T01:28:42.416Z,99697.59
2023-01-03T01:31:28.125Z,99708.75
2023-01-03T01:34:14.581Z,99707.19
2023-01-03T01:36:59.804Z,99709.16
2023-01-03T01:39:45.204Z,99705.59
2023-01-03T01:42:49.011Z,99712.38
2023-01-03T01:45:35.370Z,99725.47
2023-01-03T01:48:20.794Z,99715.56
2023-01-03T01:51:09.408Z,99721.91
2023-01-03T01:53:56.756Z,99723.91
2023-01-03T01:56:51.656Z,99733.03
2023-01-03T01:59:37.164Z,99732.66
2023-01-03T02:02:24.182Z,99738.22
2023-01-03T02:05:10.996Z,99729.88
2023-01-03T02:07:57.313Z,99733.88
2023-01-03T02:11:10.196Z,99731.13
2023-01-03T02:14:18.819Z,99735.50
2023-01-03T02:17:20.287Z,99738.28
2023-01-03T02:20:18.420Z,99733.13
2023-01-03T02:23:42.179Z,99739.91
2023-01-03T02:26:40.313Z,99735.13
2023-01-03T02:29:31.994Z,99734.75
2023-01-03T02:32:35.191Z,99745.88
2023-01-03T02:35:46.029Z,99742.72
2023-01-03T02:39:02.302Z,99744.72
2023-01-03T02:42:23.110Z,99744.72
2023-01-03T02:45:17.505Z,99746.69
2023-01-03T02:48:17.525Z,99751.47
2023-01-03T02:51:09.024Z,99751.47
2023-01-03T02:53:55.828Z,99746.34
2023-01-03T02:56:47.449Z,99749.91
2023-01-03T02:59:43.077Z,99755.09
2023-01-03T03:02:34.773Z,99757.88
2023-01-03T03:05:25.825Z,99767.78
2023-01-03T03:08:11.435Z,99768.22
2023-01-03T03:11:15.687Z,99764.22
2023-01-03T03:14:17.915Z,99769.41
2023-01-03T03:17:08.780Z,99773.78
2023-01-03T03:20:15.200Z,99765.84
2023-01-03T03:23:27.955Z,99770.63
2023-01-03T03:26:18.411Z,99770.63
2023-01-03T03:29:14.115Z,99771.03
2023-01-03T03:31:59.418Z,99769.03
2023-01-03T03:34:46.810Z,99771.81
2023-01-03T03:37:36.353Z,99774.59
2023-01-03T03:40:44.441Z,99777.75
2023-01-03T03:43:55.793Z,99784.13
2023-01-03T03:46:54.231Z,99784.13
2023-01-03T03:49:44.662Z,99789.31
2023-01-03T03:52:33.741Z,99792.09
2023-01-03T03:55:25.719Z,99792.09
2023-01-03T03:58:18.890Z,99790.50
2023-01-03T04:01:05.846Z,99791.72
2023-01-03T04:03:55.872Z,99792.50
2023-01-03T04:06:49.253Z,99795.72
2023-01-03T04:09:34.572Z,99811.19
2023-01-03T04:12:19.865Z,99805.63
2023-01-03T04:15:07.074Z,99802.06
2023-01-03T04:17:53.588Z,99804.06
2023-01-03T04:20:38.865Z,99800.84
2023-01-03T04:23:24.639Z,99803.59
2023-01-03T04:26:09.980Z,99802.38
2023-01-03T04:28:55.228Z,99809.47
2023-01-03T04:31:40.514Z,99809.84
2023-01-03T04:34:25.887Z,99813.00
2023-01-03T04:37:11.215Z,99824.50
2023-01-03T04:39:56.527Z,99831.63
2023-01-03T04:43:00.348Z,99827.59
2023-01-03T04:45:47.727Z,99831.56
2023-01-03T04:48:32.971Z,99839.47
2023-01-03T04:51:18.300Z,99844.19
2023-01-03T04:54:05.265Z,99846.56
2023-01-03T04:56:50.888Z,99853.28
2023-01-03T04:59:36.810Z,99848.84
2023-01-03T05:02:22.240Z,99856.00
2023-01-03T05:05:08.370Z,99848.78
2023-01-03T05:07:53.692Z,99849.97
2023-01-03T05:10:40.292Z,99851.19
2023-01-03T05:13:25.884Z,99857.91
2023-01-03T05:16:14.307Z,99850.34
2023-01-03T05:19:00.065Z,99847.09
2023-01-03T05:22:03.973Z,99856.66
2023-01-03T05:25:07.870Z,99859.38
2023-01-03T05:27:53.592Z,99874.03
2023-01-03T05:30:39.240Z,99874.41
2023-01-03T05:33:25.006Z,99871.22
2023-01-03T05:36:11.293Z,99875.56
2023-01-03T05:38:56.967Z,99877.16
2023-01-03T05:42:00.731Z,99879.88
2023-01-03T05:44:46.375Z,99888.22
2023-01-03T05:47:31.683Z,99891.00
2023-01-03T05:50:17.135Z,99884.22
2023-01-03T05:53:03.863Z,99895.31
2023-01-03T05:55:49.282Z,99894.09
2023-01-03T05:58:34.598Z,99895.31
2023-01-03T06:01:20.294Z,99890.94
2023-01-03T06:04:05.645Z,99898.47
2023-01-03T06:06:50.931Z,99902.81
2023-01-03T06:09:36.244Z,99904.78
2023-01-03T06:12:21.548Z,99906.72
2023-01-03T06:15:07.272Z,99906.31
2023-01-03T06:17:57.542Z,99900.31
2023-01-03T06:20:43.208Z,99901.91
2023-01-03T06:23:28.527Z,99910.25
2023-01-03T06:26:18.920Z,99909.03
2023-01-03T06:29:05.891Z,99901.91
2023-01-03T06:31:51.224Z,99909.81
2023-01-03T06:34:36.535Z,99915.84
2023-01-03T06:37:21.971Z,99915.06
2023-01-03T06:40:08.142Z,99914.25
2023-01-03T06:42:53.663Z,99922.59
2023-01-03T06:45:57.536Z,99920.66
2023-01-03T06:49:02.016Z,99921.06
2023-01-03T06:52:08.085Z,99913.97
2023-01-03T06:54:53.710Z,99931.50
2023-01-03T06:57:42.093Z,99931.91
2023-01-03T07:00:28.086Z,99941.53
2023-01-03T07:03:13.404Z,99934.78
2023-01-03T07:05:58.945Z,99937.56
2023-01-03T07:08:48.493Z,99941.16
2023-01-03T07:11:34.019Z,99942.75
2023-01-03T07:14:20.114Z,99948.69
2023-01-03T07:17:05.438Z,99939.94
2023-01-03T07:19:50.802Z,99953.88
2023-01-03T07:22:35.913Z,99945.06
2023-01-03T07:25:21.442Z,99947.00
2023-01-03T07:28:11.964Z,99951.75
2023-01-03T07:31:15.802Z,99954.06
2023-01-03T07:34:00.961Z,99942.53
2023-01-03T07:36:46.460Z,99954.44
2023-01-03T07:39:31.664Z,99956.38
2023-01-03T07:42:35.977Z,99967.53
2023-01-03T07:45:21.575Z,99961.59
2023-01-03T07:48:07.435Z,99971.91
2023-01-03T07:50:56.867Z,99979.44
2023-01-03T07:53:42.435Z,99970.66
2023-01-03T07:56:27.728Z,99980.19
2023-01-03T07:59:13.168Z,99982.97
2023-01-03T08:01:58.795Z,99989.72
2023-01-03T08:04:44.313Z,99995.28
2023-01-03T08:07:29.570Z,100007.66
2023-01-03T08:10:36.283Z,100000.94
2023-01-03T08:13:21.889Z,100003.75
2023-01-03T08:16:11.245Z,100008.53
2023-01-03T08:18:56.534Z,100003.81
2023-01-03T08:21:41.618Z,100009.00
2023-01-03T08:24:26.888Z,100015.34
2023-01-03T08:27:12.170Z,100011.34
2023-01-03T08:29:57.338Z,100011.34
2023-01-03T08:32:42.887Z,100011.72
2023-01-03T08:35:32.713Z,100014.50
2023-01-03T08:38:23.007Z,100017.66
2023-01-03T08:41:11.582Z,100012.09
2023-01-03T08:44:00.633Z,100020.84
2023-01-03T08:46:49.940Z,100012.47
2023-01-03T08:49:36.300Z,100020.03
2023-01-03T08:52:21.488Z,100023.97
2023-01-03T08:55:08.279Z,100019.19
2023-01-03T08:57:53.781Z,100027.16
2023-01-03T09:00:39.756Z,100021.59
2023-01-03T09:03:25.279Z,100030.34
2023-01-03T09:06:10.571Z,100034.34
2023-01-03T09:08:55.929Z,100041.53
2023-01-03T09:11:41.176Z,100035.16
2023-01-03T09:14:26.670Z,100039.16
2023-01-03T09:17:12.074Z,100041.97
2023-01-03T09:19:57.521Z,100038.41
2023-01-03T09:22:43.239Z,100041.59
2023-01-03T09:25:34.878Z,100040.03
2023-01-03T09:28:22.275Z,100034.47
2023-01-03T09:31:07.721Z,100040.03
2023-01-03T09:33:56.607Z,100047.59
2023-01-03T09:36:42.275Z,100053.19
2023-01-03T09:39:27.761Z,100055.53
2023-01-03T09:42:42.362Z,100053.88
2023-01-03T09:45:34.242Z,100057.81
2023-01-03T09:48:28.910Z,100070.50
2023-01-03T09:51:48.777Z,100055.34
2023-01-03T09:54:57.353Z,100062.88
2023-01-03T09:58:01.235Z,100054.91
2023-01-03T10:01:12.106Z,100058.84
2023-01-03T10:04:22.738Z,100058.00
2023-01-03T10:07:31.972Z,100063.56
2023-01-03T10:10:20.726Z,100061.53
2023-01-03T10:13:24.963Z,100044.03
2023-01-03T10:16:42.319Z,100054.78
2023-01-03T10:19:59.988Z,100048.03
2023-01-03T10:22:48.501Z,100046.97
2023-01-03T10:25:41.691Z,100055.34
2023-01-03T10:28:41.397Z,100051.00
2023-01-03T10:31:33.168Z,100050.66
2023-01-03T10:34:18.998Z,100043.88
2023-01-03T10:37:17.941Z,100044.25
2023-01-03T10:40:04.901Z,100047.78
2023-01-03T10:42:50.541Z,100043.78
2023-01-03T10:45:50.652Z,100037.41
2023-01-03T10:51:49.718Z,100044.53
2023-01-03T10:54:41.803Z,100042.13
2023-01-03T10:57:42.751Z,100042.13
2023-01-03T11:00:31.293Z,100034.16
2023-01-03T11:03:26.664Z,100040.50
2023-01-03T11:06:16.012Z,100038.88
2023-01-03T11:09:06.215Z,100032.91
2023-01-03T11:12:02.788Z,100032.13
2023-01-03T11:14:55.991Z,100025.31
2023-01-03T11:17:59.488Z,100028.47
2023-01-03T11:21:11.860Z,100024.91
2023-01-03T11:24:06.134Z,100025.69
2023-01-03T11:27:11.548Z,100014.94
2023-01-03T11:30:18.797Z,100013.31
2023-01-03T11:33:29.112Z,100011.72
2023-01-03T11:36:26.634Z,100010.13
2023-01-03T11:42:48.460Z,100021.66
2023-01-03T11:45:36.138Z,100016.47
2023-01-03T11:51:08.905Z,100014.38
2023-01-03T11:54:09.139Z,100011.97
2023-01-03T11:56:55.096Z,100008.78
2023-01-03T11:59:53.169Z,100015.13
2023-01-03T12:02:44.872Z,100017.50
2023-01-03T12:05:48.918Z,100013.09
2023-01-03T12:08:44.227Z,100009.13
2023-01-03T12:11:34.208Z,100011.09
2023-01-03T12:14:29.724Z,100006.34
2023-01-03T12:17:25.350Z,100005.22
2023-01-03T12:20:25.155Z,100008.78
2023-01-03T12:23:44.299Z,100010.03
2023-01-03T12:26:30.501Z,100006.47
2023-01-03T12:29:15.941Z,100012.81
2023-01-03T12:32:11.898Z,100012.81
2023-01-03T12:35:33.577Z,100011.59
2023-01-03T12:38:27.369Z,100012.44
2023-01-03T12:41:34.432Z,100005.31
2023-01-03T12:44:27.871Z,100007.28
2023-01-03T12:47:33.270Z,100013.28
2023-01-03T12:50:28.224Z,100009.28
2023-01-03T12:53:38.716Z,100007.72
2023-01-03T12:56:33.030Z,100007.72
2023-01-03T12:59:39.109Z,100008.91
2023-01-03T13:02:45.777Z,100002.94
2023-01-03T13:05:39.889Z,99998.53
2023-01-03T13:17:26.788Z,99994.94
2023-01-03T13:20:25.171Z,99992.09
2023-01-03T13:23:28.228Z,99992.47
2023-01-03T13:26:24.844Z,99992.94
2023-01-03T13:29:34.635Z,99991.38
2023-01-03T13:32:19.200Z,99987.00
2023-01-03T13:35:04.026Z,99985.78
2023-01-03T13:43:19.993Z,99997.38
2023-01-03T13:46:28.421Z,99994.19
2023-01-03T13:49:25.808Z,99987.09
2023-01-03T13:52:56.379Z,99987.94
2023-01-03T13:55:54.813Z,99989.56
2023-01-03T13:58:46.744Z,99988.81
2023-01-03T14:01:55.714Z,99991.22
2023-01-03T14:05:02.933Z,99993.69
2023-01-03T14:08:10.004Z,99993.72
2023-01-03T14:11:23.068Z,99997.75
2023-01-03T14:14:16.795Z,100000.97
2023-01-03T14:17:03.356Z,100004.19
2023-01-03T14:19:53.330Z,100000.16
2023-01-03T14:22:44.176Z,100004.59
2023-01-03T14:25:45.259Z,100004.19
2023-01-03T14:28:33.340Z,100008.16
2023-01-03T14:31:22.126Z,100012.94
2023-01-03T14:34:22.177Z,100022.47
2023-01-03T14:37:14.280Z,100006.63
2023-01-03T14:40:06.281Z,100017.38
2023-01-03T14:42:51.731Z,100007.44
2023-01-03T14:45:37.124Z,100017.78
2023-01-03T14:48:24.529Z,100021.00
2023-01-03T14:51:10.249Z,100011.47
2023-01-03T14:53:56.530Z,100009.09
2023-01-03T14:56:45.645Z,100021.13
2023-01-03T14:59:33.328Z,100023.91
2023-01-03T15:02:20.584Z,100025.91
2023-01-03T15:05:24.936Z,100026.28
2023-01-03T15:08:32.296Z,100035.44
2023-01-03T15:11:32.417Z,100030.66
2023-01-03T15:14:18.364Z,100035.44
2023-01-03T15:17:06.089Z,100037.03
2023-01-03T15:19:56.850Z,100041.78
2023-01-03T15:22:44.354Z,100043.38
2023-01-03T15:25:43.288Z,100050.53
2023-01-03T15:28:50.011Z,100047.31
2023-01-03T15:31:51.966Z,100046.13
2023-01-03T15:34:41.200Z,100054.44
2023-01-03T15:37:26.905Z,100050.41
2023-01-03T15:40:13.888Z,100054.38
2023-01-03T15:43:31.184Z,100055.53
2023-01-03T15:46:20.297Z,100057.53
2023-01-03T15:49:06.983Z,100061.53
2023-01-03T15:51:52.956Z,100059.91
2023-01-03T15:54:38.383Z,100071.06
2023-01-03T15:57:29.486Z,100066.63
2023-01-03T16:00:19.303Z,100071.44
2023-01-03T16:03:05.152Z,100077.38
2023-01-03T16:05:50.820Z,100071.44
2023-01-03T16:08:40.225Z,100077.41
2023-01-03T16:11:33.649Z,100073.44
2023-01-03T16:14:23.443Z,100078.66
2023-01-03T16:17:17.070Z,100084.63
2023-01-03T16:20:06.768Z,100091.00
2023-01-03T16:23:00.503Z,100090.16
2023-01-03T16:25:46.527Z,100091.72
2023-01-03T16:28:31.832Z,100085.38
2023-01-03T16:31:20.173Z,100091.72
2023-01-03T16:34:10.374Z,100095.75
2023-01-03T16:36:55.686Z,100090.16
2023-01-03T16:39:47.483Z,100088.22
2023-01-03T16:42:34.080Z,100087.38
2023-01-03T16:45:19.567Z,100087.78
2023-01-03T16:48:05.759Z,100091.38
2023-01-03T16:50:55.170Z,100086.97
2023-01-03T16:53:40.948Z,100078.25
2023-01-03T16:56:27.217Z,100083.03
2023-01-03T16:59:20.772Z,100084.63
2023-01-03T17:02:06.668Z,100091.00
2023-01-03T17:04:52.211Z,100088.16
2023-01-03T17:07:38.151Z,100089.78
2023-01-03T17:10:29.297Z,100080.25
2023-01-03T17:13:27.358Z,100091.00
2023-01-03T17:16:22.802Z,100094.97
2023-01-03T17:19:51.243Z,100094.59
2023-01-03T17:22:24.042Z,100097.00
2023-01-03T17:25:11.513Z,100095.44
2023-01-03T17:27:59.841Z,100103.78
2023-01-03T17:30:45.320Z,100106.56
2023-01-03T17:33:33.964Z,100111.75
2023-01-03T17:36:40.573Z,100114.53
2023-01-03T17:39:27.282Z,100114.91
2023-01-03T17:42:17.054Z,100118.50
2023-01-03T17:45:20.832Z,100112.53
2023-01-03T17:48:27.944Z,100113.69
2023-01-03T17:51:13.196Z,100115.25
2023-01-03T17:53:58.357Z,100115.25
2023-01-03T17:56:44.175Z,100115.25
2023-01-03T17:59:29.739Z,100117.25
2023-01-03T18:02:21.548Z,100120.03
2023-01-03T18:05:18.890Z,100118.00
2023-01-03T18:08:18.053Z,100119.63
2023-01-03T18:11:03.905Z,100116.44
2023-01-03T18:13:49.912Z,100114.84
2023-01-03T18:16:35.699Z,100112.44
2023-01-03T18:19:20.892Z,100113.22
2023-01-03T18:22:06.223Z,100110.03
2023-01-03T18:24:52.807Z,100115.63
2023-01-03T18:27:38.348Z,100110.03
2023-01-03T18:30:23.895Z,100109.25
2023-01-03T18:33:10.170Z,100115.63
2023-01-03T18:35:55.871Z,100117.19
2023-01-03T18:38:41.557Z,100124.34
2023-01-03T18:41:29.716Z,100121.16
2023-01-03T18:44:23.760Z,100120.34
2023-01-03T18:47:13.641Z,100126.34
2023-01-03T18:49:59.136Z,100122.81
2023-01-03T18:52:44.950Z,100127.59
2023-01-03T18:55:33.516Z,100124.03
2023-01-03T18:58:35.938Z,100129.22
2023-01-03T19:01:21.721Z,100130.03
2023-01-03T19:04:06.941Z,100127.28
2023-01-03T19:06:52.493Z,100126.53
2023-01-03T19:09:38.229Z,100130.94
2023-01-03T19:12:24.003Z,100120.97
2023-01-03T19:15:16.820Z,100121.44
2023-01-03T19:18:03.720Z,100109.53
2023-01-03T19:20:51.367Z,100106.34
2023-01-03T19:23:37.240Z,100104.41
2023-01-03T19:26:30.853Z,100097.63
2023-01-03T19:29:23.773Z,100113.56
2023-01-03T19:32:23.071Z,100108.00
2023-01-03T19:35:18.122Z,100108.84
2023-01-03T19:38:04.422Z,100110.81
2023-01-03T19:40:50.610Z,100107.66
2023-01-03T19:43:36.853Z,100112.03
2023-01-03T19:46:48.356Z,100114.06
2023-01-03T19:49:34.141Z,100114.47
2023-01-03T19:52:19.470Z,100108.94
2023-01-03T19:55:05.254Z,100107.34
2023-01-03T19:57:51.127Z,100111.31
2023-01-03T20:00:37.231Z,100101.81
2023-01-03T20:03:39.219Z,100097.06
2023-01-03T20:06:25.582Z,100101.03
2023-01-03T20:09:11.023Z,100104.25
2023-01-03T20:11:56.889Z,100103.06
2023-01-03T20:14:51.388Z,100102.69
2023-01-03T20:17:37.237Z,100104.66
2023-01-03T20:20:24.003Z,100106.66
2023-01-03T20:23:15.319Z,100107.84
2023-01-03T20:26:01.229Z,100103.47
2023-01-03T20:28:46.747Z,100100.31
2023-01-03T20:31:41.698Z,100099.53
2023-01-03T20:34:26.802Z,100098.75
2023-01-03T20:37:18.682Z,100101.91
2023-01-03T20:40:04.293Z,100096.34
2023-01-03T20:42:50.345Z,100094.78
2023-01-03T20:45:37.125Z,100094.41
2023-01-03T20:48:26.140Z,100088.84
2023-01-03T20:51:13.986Z,100092.41
2023-01-03T20:53:59.112Z,100088.84
2023-01-03T20:56:44.771Z,100088.06
2023-01-03T20:59:31.545Z,100100.34
2023-01-03T21:02:17.164Z,100084.88
2023-01-03T21:05:02.825Z,100082.09
2023-01-03T21:08:07.043Z,100081.72
2023-01-03T21:10:55.149Z,100079.34
2023-01-03T21:13:42.198Z,100076.56
2023-01-03T21:16:44.304Z,100074.16
2023-01-03T21:19:29.582Z,100072.59
2023-01-03T21:22:20.385Z,100093.28
2023-01-03T21:25:07.239Z,100075.00
2023-01-03T21:27:52.633Z,100074.22
2023-01-03T21:30:38.766Z,100073.41
2023-01-03T21:33:25.149Z,100081.38
2023-01-03T21:36:23.192Z,100069.88
2023-01-03T21:39:10.211Z,100074.66
2023-01-03T21:42:14.238Z,100076.22
2023-01-03T21:44:59.553Z,100063.53
2023-01-03T21:47:44.929Z,100070.28
2023-01-03T21:50:31.158Z,100071.47
2023-01-03T21:53:19.590Z,100068.69
2023-01-03T21:56:10.148Z,100063.13
2023-01-03T21:58:55.907Z,100060.34
2023-01-03T22:02:02.716Z,100057.59
2023-01-03T22:04:48.130Z,100055.19
2023-01-03T22:07:33.333Z,100059.56
2023-01-03T22:10:19.264Z,100057.59
2023-01-03T22:13:07.880Z,100058.38
2023-01-03T22:15:53.215Z,100050.03
2023-01-03T22:18:38.387Z,100053.59
2023-01-03T22:21:23.666Z,100049.63
2023-01-03T22:24:08.897Z,100049.63
2023-01-03T22:26:54.135Z,100041.69
2023-01-03T22:29:39.431Z,100042.47
2023-01-03T22:32:26.024Z,100044.47
2023-01-03T22:35:13.848Z,100036.56
2023-01-03T22:37:59.288Z,100034.94
2023-01-03T22:40:44.825Z,100037.72
2023-01-03T22:43:30.339Z,100032.16
2023-01-03T22:46:16.960Z,100031.38
2023-01-03T22:49:02.337Z,100036.16
2023-01-03T22:51:47.644Z,100035.34
2023-01-03T22:54:35.224Z,100036.56
2023-01-03T22:57:20.683Z,100041.34
2023-01-03T23:00:06.971Z,100046.09
2023-01-03T23:02:52.496Z,100038.94
2023-01-03T23:05:38.072Z,100038.94
2023-01-03T23:08:23.304Z,100033.78
2023-01-03T23:11:34.135Z,100033.78
2023-01-03T23:14:22.292Z,100027.84
2023-01-03T23:17:26.444Z,100024.28
2023-01-03T23:20:11.802Z,100029.84
2023-01-03T23:23:02.827Z,100023.47
2023-01-03T23:25:48.437Z,100023.47
2023-01-03T23:28:33.890Z,100019.13
2023-01-03T23:31:19.246Z,100016.34
2023-01-03T23:34:04.467Z,100013.56
2023-01-03T23:36:49.783Z,100009.56
2023-01-03T23:39:35.337Z,100016.34
2023-01-03T23:42:20.836Z,100008.00
2023-01-03T23:45:07.248Z,100012.34
2023-01-03T23:47:53.391Z,100001.22
2023-01-03T23:50:38.619Z,99992.50
2023-01-03T23:53:23.763Z,99991.31
2023-01-03T23:56:12.805Z,99989.31
2023-01-03T23:58:58.406Z,99983.34
